sensor_id;sensor_type;location;lat;lon;timestamp;P1;durP1;ratioP1;P2;durP2;ratioP2
2486;SDS011;1254;49.144;8.212;2023-02-28T00:01:41;4.78;;;4.10;;
2486;SDS011;1254;49.144;8.212;2023-02-28T00:04:11;4.65;;;4.13;;
2486;SDS011;1254;49.144;8.212;2023-02-28T00:06:39;3.90;;;3.60;;
2486;SDS011;1254;49.144;8.212;2023-02-28T00:09:08;5.20;;;3.45;;
2486;SDS011;1254;49.144;8.212;2023-02-28T00:11:36;3.63;;;3.42;;
2486;SDS011;1254;49.144;8.212;2023-02-28T00:14:04;6.20;;;4.22;;
2486;SDS011;1254;49.144;8.212;2023-02-28T00:16:32;4.40;;;4.00;;
2486;SDS011;1254;49.144;8.212;2023-02-28T00:19:01;4.05;;;3.70;;
2486;SDS011;1254;49.144;8.212;2023-02-28T00:21:30;5.13;;;4.10;;
2486;SDS011;1254;49.144;8.212;2023-02-28T00:23:58;4.13;;;3.90;;
2486;SDS011;1254;49.144;8.212;2023-02-28T00:26:27;3.53;;;3.38;;
2486;SDS011;1254;49.144;8.212;2023-02-28T00:28:55;5.38;;;3.58;;
2486;SDS011;1254;49.144;8.212;2023-02-28T00:31:23;3.58;;;3.38;;
2486;SDS011;1254;49.144;8.212;2023-02-28T00:33:52;3.78;;;3.58;;
2486;SDS011;1254;49.144;8.212;2023-02-28T00:36:20;3.20;;;3.00;;
2486;SDS011;1254;49.144;8.212;2023-02-28T00:38:50;3.28;;;3.03;;
2486;SDS011;1254;49.144;8.212;2023-02-28T00:41:19;3.85;;;3.55;;
2486;SDS011;1254;49.144;8.212;2023-02-28T00:43:47;4.22;;;3.50;;
2486;SDS011;1254;49.144;8.212;2023-02-28T00:46:15;3.72;;;3.42;;
2486;SDS011;1254;49.144;8.212;2023-02-28T00:48:44;2.83;;;2.72;;
2486;SDS011;1254;49.144;8.212;2023-02-28T00:51:12;3.80;;;3.50;;
2486;SDS011;1254;49.144;8.212;2023-02-28T00:53:40;3.70;;;3.40;;
2486;SDS011;1254;49.144;8.212;2023-02-28T00:56:10;4.50;;;3.33;;
2486;SDS011;1254;49.144;8.212;2023-02-28T00:58:38;3.90;;;3.53;;
2486;SDS011;1254;49.144;8.212;2023-02-28T01:01:07;3.10;;;2.90;;
2486;SDS011;1254;49.144;8.212;2023-02-28T01:03:37;3.95;;;3.67;;
2486;SDS011;1254;49.144;8.212;2023-02-28T01:06:06;5.05;;;3.35;;
2486;SDS011;1254;49.144;8.212;2023-02-28T01:08:34;4.15;;;3.53;;
2486;SDS011;1254;49.144;8.212;2023-02-28T01:11:11;4.22;;;3.85;;
2486;SDS011;1254;49.144;8.212;2023-02-28T01:13:40;3.88;;;3.22;;
2486;SDS011;1254;49.144;8.212;2023-02-28T01:16:08;4.13;;;3.20;;
2486;SDS011;1254;49.144;8.212;2023-02-28T01:18:37;6.13;;;3.22;;
2486;SDS011;1254;49.144;8.212;2023-02-28T01:21:05;6.90;;;3.50;;
2486;SDS011;1254;49.144;8.212;2023-02-28T01:23:33;4.57;;;3.35;;
2486;SDS011;1254;49.144;8.212;2023-02-28T01:26:03;4.13;;;3.50;;
2486;SDS011;1254;49.144;8.212;2023-02-28T01:28:33;4.18;;;2.63;;
2486;SDS011;1254;49.144;8.212;2023-02-28T01:31:02;9.02;;;3.70;;
2486;SDS011;1254;49.144;8.212;2023-02-28T01:33:30;4.10;;;3.80;;
2486;SDS011;1254;49.144;8.212;2023-02-28T01:35:59;3.30;;;3.00;;
2486;SDS011;1254;49.144;8.212;2023-02-28T01:38:29;6.10;;;3.42;;
2486;SDS011;1254;49.144;8.212;2023-02-28T01:40:57;3.45;;;3.15;;
2486;SDS011;1254;49.144;8.212;2023-02-28T01:43:27;3.08;;;2.85;;
2486;SDS011;1254;49.144;8.212;2023-02-28T01:45:57;4.10;;;3.15;;
2486;SDS011;1254;49.144;8.212;2023-02-28T01:48:27;3.90;;;3.60;;
2486;SDS011;1254;49.144;8.212;2023-02-28T01:50:58;2.65;;;2.53;;
2486;SDS011;1254;49.144;8.212;2023-02-28T01:53:29;3.15;;;2.95;;
2486;SDS011;1254;49.144;8.212;2023-02-28T01:55:59;7.47;;;2.50;;
2486;SDS011;1254;49.144;8.212;2023-02-28T01:58:27;2.40;;;2.30;;
2486;SDS011;1254;49.144;8.212;2023-02-28T02:00:57;2.65;;;2.45;;
2486;SDS011;1254;49.144;8.212;2023-02-28T02:03:26;3.80;;;2.90;;
2486;SDS011;1254;49.144;8.212;2023-02-28T02:05:54;6.95;;;2.58;;
2486;SDS011;1254;49.144;8.212;2023-02-28T02:08:23;3.28;;;3.03;;
2486;SDS011;1254;49.144;8.212;2023-02-28T02:10:53;3.67;;;3.38;;
2486;SDS011;1254;49.144;8.212;2023-02-28T02:16:17;2.95;;;2.72;;
2486;SDS011;1254;49.144;8.212;2023-02-28T02:18:48;2.85;;;2.65;;
2486;SDS011;1254;49.144;8.212;2023-02-28T02:27:08;3.15;;;2.92;;
2486;SDS011;1254;49.144;8.212;2023-02-28T02:35:16;3.15;;;2.83;;
2486;SDS011;1254;49.144;8.212;2023-02-28T02:37:49;2.95;;;2.75;;
2486;SDS011;1254;49.144;8.212;2023-02-28T02:40:19;2.72;;;2.53;;
2486;SDS011;1254;49.144;8.212;2023-02-28T02:42:50;3.75;;;3.08;;
2486;SDS011;1254;49.144;8.212;2023-02-28T02:45:22;2.70;;;2.50;;
2486;SDS011;1254;49.144;8.212;2023-02-28T02:47:53;2.72;;;2.53;;
2486;SDS011;1254;49.144;8.212;2023-02-28T02:50:26;4.13;;;3.08;;
2486;SDS011;1254;49.144;8.212;2023-02-28T02:52:59;3.60;;;3.20;;
2486;SDS011;1254;49.144;8.212;2023-02-28T02:55:29;3.30;;;2.90;;
2486;SDS011;1254;49.144;8.212;2023-02-28T02:58:01;2.40;;;2.20;;
2486;SDS011;1254;49.144;8.212;2023-02-28T03:00:30;4.45;;;3.80;;
2486;SDS011;1254;49.144;8.212;2023-02-28T03:03:00;3.00;;;2.80;;
2486;SDS011;1254;49.144;8.212;2023-02-28T03:05:32;3.05;;;2.75;;
2486;SDS011;1254;49.144;8.212;2023-02-28T03:08:03;4.03;;;2.88;;
2486;SDS011;1254;49.144;8.212;2023-02-28T03:10:34;6.60;;;3.50;;
2486;SDS011;1254;49.144;8.212;2023-02-28T03:13:19;3.60;;;3.25;;
2486;SDS011;1254;49.144;8.212;2023-02-28T03:15:55;5.65;;;3.70;;
2486;SDS011;1254;49.144;8.212;2023-02-28T03:18:28;2.97;;;2.70;;
2486;SDS011;1254;49.144;8.212;2023-02-28T03:21:03;3.30;;;3.00;;
2486;SDS011;1254;49.144;8.212;2023-02-28T03:23:38;3.20;;;2.90;;
2486;SDS011;1254;49.144;8.212;2023-02-28T03:26:12;4.80;;;3.05;;
2486;SDS011;1254;49.144;8.212;2023-02-28T03:28:42;3.83;;;3.17;;
2486;SDS011;1254;49.144;8.212;2023-02-28T03:31:14;3.55;;;3.25;;
2486;SDS011;1254;49.144;8.212;2023-02-28T03:33:46;3.78;;;2.88;;
2486;SDS011;1254;49.144;8.212;2023-02-28T03:36:22;4.38;;;3.25;;
2486;SDS011;1254;49.144;8.212;2023-02-28T03:38:54;3.78;;;3.38;;
2486;SDS011;1254;49.144;8.212;2023-02-28T03:41:23;4.90;;;3.55;;
2486;SDS011;1254;49.144;8.212;2023-02-28T03:43:53;3.80;;;3.42;;
2486;SDS011;1254;49.144;8.212;2023-02-28T03:46:23;5.03;;;3.85;;
2486;SDS011;1254;49.144;8.212;2023-02-28T03:48:54;4.20;;;3.63;;
2486;SDS011;1254;49.144;8.212;2023-02-28T03:51:24;3.65;;;3.03;;
2486;SDS011;1254;49.144;8.212;2023-02-28T03:53:56;12.43;;;3.72;;
2486;SDS011;1254;49.144;8.212;2023-02-28T03:56:27;5.22;;;3.70;;
2486;SDS011;1254;49.144;8.212;2023-02-28T03:58:57;5.65;;;4.18;;
2486;SDS011;1254;49.144;8.212;2023-02-28T04:01:30;5.75;;;3.55;;
2486;SDS011;1254;49.144;8.212;2023-02-28T04:03:59;6.28;;;3.25;;
2486;SDS011;1254;49.144;8.212;2023-02-28T04:06:30;3.40;;;3.20;;
2486;SDS011;1254;49.144;8.212;2023-02-28T04:08:59;5.38;;;3.70;;
2486;SDS011;1254;49.144;8.212;2023-02-28T04:11:28;4.90;;;3.28;;
2486;SDS011;1254;49.144;8.212;2023-02-28T04:13:58;6.50;;;4.13;;
2486;SDS011;1254;49.144;8.212;2023-02-28T04:16:26;3.92;;;3.63;;
2486;SDS011;1254;49.144;8.212;2023-02-28T04:18:54;5.95;;;4.28;;
2486;SDS011;1254;49.144;8.212;2023-02-28T04:21:28;3.85;;;3.38;;
2486;SDS011;1254;49.144;8.212;2023-02-28T04:23:57;3.95;;;3.47;;
2486;SDS011;1254;49.144;8.212;2023-02-28T04:26:27;3.40;;;3.10;;
2486;SDS011;1254;49.144;8.212;2023-02-28T04:28:56;6.05;;;4.10;;
2486;SDS011;1254;49.144;8.212;2023-02-28T04:31:25;5.22;;;4.07;;
2486;SDS011;1254;49.144;8.212;2023-02-28T04:33:53;3.08;;;2.80;;
2486;SDS011;1254;49.144;8.212;2023-02-28T04:36:21;7.47;;;4.88;;
2486;SDS011;1254;49.144;8.212;2023-02-28T04:38:49;6.57;;;4.18;;
2486;SDS011;1254;49.144;8.212;2023-02-28T04:41:22;6.82;;;4.30;;
2486;SDS011;1254;49.144;8.212;2023-02-28T04:43:50;5.25;;;4.10;;
2486;SDS011;1254;49.144;8.212;2023-02-28T04:46:19;6.15;;;4.95;;
2486;SDS011;1254;49.144;8.212;2023-02-28T04:48:47;6.82;;;4.15;;
2486;SDS011;1254;49.144;8.212;2023-02-28T04:51:16;7.55;;;5.63;;
2486;SDS011;1254;49.144;8.212;2023-02-28T04:53:45;5.32;;;4.20;;
2486;SDS011;1254;49.144;8.212;2023-02-28T04:56:14;4.45;;;3.83;;
2486;SDS011;1254;49.144;8.212;2023-02-28T04:58:44;6.50;;;5.05;;
2486;SDS011;1254;49.144;8.212;2023-02-28T05:01:17;5.75;;;4.72;;
2486;SDS011;1254;49.144;8.212;2023-02-28T05:03:45;9.32;;;4.75;;
2486;SDS011;1254;49.144;8.212;2023-02-28T05:06:14;8.38;;;5.03;;
2486;SDS011;1254;49.144;8.212;2023-02-28T05:08:43;3.58;;;3.20;;
2486;SDS011;1254;49.144;8.212;2023-02-28T05:11:15;7.35;;;3.42;;
2486;SDS011;1254;49.144;8.212;2023-02-28T05:13:45;4.68;;;3.85;;
2486;SDS011;1254;49.144;8.212;2023-02-28T05:16:14;5.57;;;4.78;;
2486;SDS011;1254;49.144;8.212;2023-02-28T05:18:42;6.82;;;5.05;;
2486;SDS011;1254;49.144;8.212;2023-02-28T05:21:22;7.07;;;4.90;;
2486;SDS011;1254;49.144;8.212;2023-02-28T05:23:51;4.93;;;4.53;;
2486;SDS011;1254;49.144;8.212;2023-02-28T05:26:19;5.47;;;4.82;;
2486;SDS011;1254;49.144;8.212;2023-02-28T05:28:49;7.82;;;4.30;;
2486;SDS011;1254;49.144;8.212;2023-02-28T05:31:17;5.22;;;4.05;;
2486;SDS011;1254;49.144;8.212;2023-02-28T05:33:46;6.85;;;4.60;;
2486;SDS011;1254;49.144;8.212;2023-02-28T05:36:14;7.47;;;4.95;;
2486;SDS011;1254;49.144;8.212;2023-02-28T05:38:42;5.35;;;4.40;;
2486;SDS011;1254;49.144;8.212;2023-02-28T05:41:10;6.13;;;4.78;;
2486;SDS011;1254;49.144;8.212;2023-02-28T05:43:38;6.68;;;4.95;;
2486;SDS011;1254;49.144;8.212;2023-02-28T05:46:08;5.38;;;4.00;;
2486;SDS011;1254;49.144;8.212;2023-02-28T05:48:37;7.03;;;4.85;;
2486;SDS011;1254;49.144;8.212;2023-02-28T05:51:06;7.15;;;4.53;;
2486;SDS011;1254;49.144;8.212;2023-02-28T05:53:34;4.65;;;4.15;;
2486;SDS011;1254;49.144;8.212;2023-02-28T05:56:03;5.75;;;4.70;;
2486;SDS011;1254;49.144;8.212;2023-02-28T05:58:31;5.80;;;5.03;;
2486;SDS011;1254;49.144;8.212;2023-02-28T06:01:18;4.35;;;3.95;;
2486;SDS011;1254;49.144;8.212;2023-02-28T06:03:48;4.45;;;3.95;;
2486;SDS011;1254;49.144;8.212;2023-02-28T06:06:16;4.80;;;4.32;;
2486;SDS011;1254;49.144;8.212;2023-02-28T06:08:44;6.78;;;4.90;;
2486;SDS011;1254;49.144;8.212;2023-02-28T06:11:13;6.28;;;3.80;;
2486;SDS011;1254;49.144;8.212;2023-02-28T06:13:41;6.03;;;4.30;;
2486;SDS011;1254;49.144;8.212;2023-02-28T06:16:10;5.35;;;4.85;;
2486;SDS011;1254;49.144;8.212;2023-02-28T06:18:38;5.10;;;4.60;;
2486;SDS011;1254;49.144;8.212;2023-02-28T06:21:08;4.80;;;4.45;;
2486;SDS011;1254;49.144;8.212;2023-02-28T06:23:36;4.75;;;4.35;;
2486;SDS011;1254;49.144;8.212;2023-02-28T06:26:04;6.82;;;5.35;;
2486;SDS011;1254;49.144;8.212;2023-02-28T06:28:33;8.23;;;4.65;;
2486;SDS011;1254;49.144;8.212;2023-02-28T06:31:05;6.75;;;4.30;;
2486;SDS011;1254;49.144;8.212;2023-02-28T06:33:33;5.13;;;4.65;;
2486;SDS011;1254;49.144;8.212;2023-02-28T06:36:02;6.53;;;5.40;;
2486;SDS011;1254;49.144;8.212;2023-02-28T06:38:32;7.90;;;4.63;;
2486;SDS011;1254;49.144;8.212;2023-02-28T06:41:00;5.68;;;5.10;;
2486;SDS011;1254;49.144;8.212;2023-02-28T06:43:29;7.68;;;5.40;;
2486;SDS011;1254;49.144;8.212;2023-02-28T06:45:59;5.22;;;4.45;;
2486;SDS011;1254;49.144;8.212;2023-02-28T06:48:27;9.45;;;5.35;;
2486;SDS011;1254;49.144;8.212;2023-02-28T06:51:02;7.55;;;4.78;;
2486;SDS011;1254;49.144;8.212;2023-02-28T06:53:32;6.95;;;4.82;;
2486;SDS011;1254;49.144;8.212;2023-02-28T06:56:03;11.43;;;5.70;;
2486;SDS011;1254;49.144;8.212;2023-02-28T06:58:32;5.10;;;4.32;;
2486;SDS011;1254;49.144;8.212;2023-02-28T07:01:00;5.50;;;3.97;;
2486;SDS011;1254;49.144;8.212;2023-02-28T07:03:29;6.80;;;4.40;;
2486;SDS011;1254;49.144;8.212;2023-02-28T07:05:57;15.77;;;4.80;;
2486;SDS011;1254;49.144;8.212;2023-02-28T07:08:25;6.38;;;4.63;;
2486;SDS011;1254;49.144;8.212;2023-02-28T07:10:55;6.13;;;5.18;;
2486;SDS011;1254;49.144;8.212;2023-02-28T07:13:24;6.20;;;4.75;;
2486;SDS011;1254;49.144;8.212;2023-02-28T07:15:53;4.82;;;4.15;;
2486;SDS011;1254;49.144;8.212;2023-02-28T07:18:21;5.32;;;4.68;;
2486;SDS011;1254;49.144;8.212;2023-02-28T07:20:50;6.60;;;5.32;;
2486;SDS011;1254;49.144;8.212;2023-02-28T07:23:18;4.40;;;4.00;;
2486;SDS011;1254;49.144;8.212;2023-02-28T07:25:46;9.73;;;6.30;;
2486;SDS011;1254;49.144;8.212;2023-02-28T07:28:16;7.85;;;6.35;;
2486;SDS011;1254;49.144;8.212;2023-02-28T07:30:44;5.63;;;4.30;;
2486;SDS011;1254;49.144;8.212;2023-02-28T07:33:14;6.25;;;5.53;;
2486;SDS011;1254;49.144;8.212;2023-02-28T07:35:42;8.57;;;5.28;;
2486;SDS011;1254;49.144;8.212;2023-02-28T07:38:11;8.75;;;3.80;;
2486;SDS011;1254;49.144;8.212;2023-02-28T07:40:39;12.55;;;5.15;;
2486;SDS011;1254;49.144;8.212;2023-02-28T07:43:08;8.48;;;5.47;;
2486;SDS011;1254;49.144;8.212;2023-02-28T07:45:38;8.85;;;5.15;;
2486;SDS011;1254;49.144;8.212;2023-02-28T07:48:06;23.92;;;8.20;;
2486;SDS011;1254;49.144;8.212;2023-02-28T07:50:36;11.95;;;7.68;;
2486;SDS011;1254;49.144;8.212;2023-02-28T07:53:04;6.57;;;5.60;;
2486;SDS011;1254;49.144;8.212;2023-02-28T07:55:32;9.98;;;6.45;;
2486;SDS011;1254;49.144;8.212;2023-02-28T07:58:01;15.80;;;8.13;;
2486;SDS011;1254;49.144;8.212;2023-02-28T08:00:29;7.10;;;5.78;;
2486;SDS011;1254;49.144;8.212;2023-02-28T08:02:59;15.77;;;7.05;;
2486;SDS011;1254;49.144;8.212;2023-02-28T08:05:27;6.18;;;5.35;;
2486;SDS011;1254;49.144;8.212;2023-02-28T08:07:56;8.30;;;5.53;;
2486;SDS011;1254;49.144;8.212;2023-02-28T08:10:24;6.45;;;5.32;;
2486;SDS011;1254;49.144;8.212;2023-02-28T08:12:52;7.18;;;5.47;;
2486;SDS011;1254;49.144;8.212;2023-02-28T08:15:21;18.38;;;8.57;;
2486;SDS011;1254;49.144;8.212;2023-02-28T08:17:49;8.40;;;6.03;;
2486;SDS011;1254;49.144;8.212;2023-02-28T08:20:19;8.93;;;6.85;;
2486;SDS011;1254;49.144;8.212;2023-02-28T08:22:47;11.50;;;7.22;;
2486;SDS011;1254;49.144;8.212;2023-02-28T08:25:15;8.32;;;7.43;;
2486;SDS011;1254;49.144;8.212;2023-02-28T08:27:44;8.98;;;7.78;;
2486;SDS011;1254;49.144;8.212;2023-02-28T08:30:13;8.60;;;6.63;;
2486;SDS011;1254;49.144;8.212;2023-02-28T08:32:41;7.13;;;5.72;;
2486;SDS011;1254;49.144;8.212;2023-02-28T08:35:09;9.82;;;6.00;;
2486;SDS011;1254;49.144;8.212;2023-02-28T08:37:42;9.57;;;7.90;;
2486;SDS011;1254;49.144;8.212;2023-02-28T08:40:11;8.80;;;7.72;;
2486;SDS011;1254;49.144;8.212;2023-02-28T08:42:44;7.90;;;6.75;;
2486;SDS011;1254;49.144;8.212;2023-02-28T08:45:12;8.07;;;7.30;;
2486;SDS011;1254;49.144;8.212;2023-02-28T08:47:40;8.88;;;7.55;;
2486;SDS011;1254;49.144;8.212;2023-02-28T08:50:09;9.65;;;7.40;;
2486;SDS011;1254;49.144;8.212;2023-02-28T08:52:38;8.77;;;7.15;;
2486;SDS011;1254;49.144;8.212;2023-02-28T08:55:08;7.40;;;6.72;;
2486;SDS011;1254;49.144;8.212;2023-02-28T08:57:37;7.93;;;7.20;;
2486;SDS011;1254;49.144;8.212;2023-02-28T09:00:05;7.22;;;6.53;;
2486;SDS011;1254;49.144;8.212;2023-02-28T09:02:34;9.90;;;7.18;;
2486;SDS011;1254;49.144;8.212;2023-02-28T09:05:03;11.75;;;8.20;;
2486;SDS011;1254;49.144;8.212;2023-02-28T09:07:31;10.95;;;7.65;;
2486;SDS011;1254;49.144;8.212;2023-02-28T09:10:00;9.65;;;7.22;;
2486;SDS011;1254;49.144;8.212;2023-02-28T09:12:31;9.82;;;8.40;;
2486;SDS011;1254;49.144;8.212;2023-02-28T09:15:00;8.70;;;7.80;;
2486;SDS011;1254;49.144;8.212;2023-02-28T09:17:28;11.27;;;7.75;;
2486;SDS011;1254;49.144;8.212;2023-02-28T09:19:56;10.13;;;9.07;;
2486;SDS011;1254;49.144;8.212;2023-02-28T09:22:25;9.52;;;8.60;;
2486;SDS011;1254;49.144;8.212;2023-02-28T09:24:53;8.55;;;7.65;;
2486;SDS011;1254;49.144;8.212;2023-02-28T09:27:21;8.15;;;7.30;;
2486;SDS011;1254;49.144;8.212;2023-02-28T09:29:51;7.95;;;6.80;;
2486;SDS011;1254;49.144;8.212;2023-02-28T09:32:19;15.13;;;7.80;;
2486;SDS011;1254;49.144;8.212;2023-02-28T09:34:47;10.90;;;8.50;;
2486;SDS011;1254;49.144;8.212;2023-02-28T09:37:15;10.95;;;7.82;;
2486;SDS011;1254;49.144;8.212;2023-02-28T09:39:43;9.60;;;8.45;;
2486;SDS011;1254;49.144;8.212;2023-02-28T09:42:14;9.98;;;8.10;;
2486;SDS011;1254;49.144;8.212;2023-02-28T09:44:46;9.32;;;8.27;;
2486;SDS011;1254;49.144;8.212;2023-02-28T09:47:17;13.98;;;7.55;;
2486;SDS011;1254;49.144;8.212;2023-02-28T09:49:49;7.75;;;6.70;;
2486;SDS011;1254;49.144;8.212;2023-02-28T09:52:18;9.80;;;8.60;;
2486;SDS011;1254;49.144;8.212;2023-02-28T09:54:46;8.52;;;7.63;;
2486;SDS011;1254;49.144;8.212;2023-02-28T09:57:17;9.05;;;8.07;;
2486;SDS011;1254;49.144;8.212;2023-02-28T10:02:48;8.30;;;7.50;;
2486;SDS011;1254;49.144;8.212;2023-02-28T10:05:19;7.60;;;6.80;;
2486;SDS011;1254;49.144;8.212;2023-02-28T10:07:51;8.77;;;7.88;;
2486;SDS011;1254;49.144;8.212;2023-02-28T10:10:24;9.90;;;8.60;;
2486;SDS011;1254;49.144;8.212;2023-02-28T10:12:56;10.00;;;8.48;;
2486;SDS011;1254;49.144;8.212;2023-02-28T10:15:27;13.23;;;9.30;;
2486;SDS011;1254;49.144;8.212;2023-02-28T10:17:59;12.77;;;8.82;;
2486;SDS011;1254;49.144;8.212;2023-02-28T10:20:28;8.50;;;7.70;;
2486;SDS011;1254;49.144;8.212;2023-02-28T10:23:02;9.20;;;8.23;;
2486;SDS011;1254;49.144;8.212;2023-02-28T10:25:34;10.73;;;8.57;;
2486;SDS011;1254;49.144;8.212;2023-02-28T10:28:07;15.65;;;9.07;;
2486;SDS011;1254;49.144;8.212;2023-02-28T10:30:37;10.98;;;8.00;;
2486;SDS011;1254;49.144;8.212;2023-02-28T10:33:10;8.77;;;7.97;;
2486;SDS011;1254;49.144;8.212;2023-02-28T10:35:43;8.35;;;7.65;;
2486;SDS011;1254;49.144;8.212;2023-02-28T10:38:14;9.70;;;8.70;;
2486;SDS011;1254;49.144;8.212;2023-02-28T10:40:45;11.23;;;9.07;;
2486;SDS011;1254;49.144;8.212;2023-02-28T10:43:20;11.85;;;9.07;;
2486;SDS011;1254;49.144;8.212;2023-02-28T10:45:53;9.68;;;8.55;;
2486;SDS011;1254;49.144;8.212;2023-02-28T10:48:36;12.02;;;9.82;;
2486;SDS011;1254;49.144;8.212;2023-02-28T10:51:05;13.50;;;9.65;;
2486;SDS011;1254;49.144;8.212;2023-02-28T10:53:35;11.15;;;9.77;;
2486;SDS011;1254;49.144;8.212;2023-02-28T10:56:05;10.05;;;8.95;;
2486;SDS011;1254;49.144;8.212;2023-02-28T10:58:42;9.68;;;8.73;;
2486;SDS011;1254;49.144;8.212;2023-02-28T11:01:13;10.65;;;8.80;;
2486;SDS011;1254;49.144;8.212;2023-02-28T11:03:43;10.40;;;9.40;;
2486;SDS011;1254;49.144;8.212;2023-02-28T11:06:13;9.65;;;8.65;;
2486;SDS011;1254;49.144;8.212;2023-02-28T11:08:44;10.32;;;9.40;;
2486;SDS011;1254;49.144;8.212;2023-02-28T11:11:12;10.30;;;9.20;;
2486;SDS011;1254;49.144;8.212;2023-02-28T11:13:40;11.40;;;10.40;;
2486;SDS011;1254;49.144;8.212;2023-02-28T11:16:09;10.07;;;8.65;;
2486;SDS011;1254;49.144;8.212;2023-02-28T11:18:40;12.93;;;9.13;;
2486;SDS011;1254;49.144;8.212;2023-02-28T11:21:14;10.35;;;9.38;;
2486;SDS011;1254;49.144;8.212;2023-02-28T11:23:43;11.68;;;9.82;;
2486;SDS011;1254;49.144;8.212;2023-02-28T11:26:11;10.75;;;9.65;;
2486;SDS011;1254;49.144;8.212;2023-02-28T11:28:40;11.18;;;10.07;;
2486;SDS011;1254;49.144;8.212;2023-02-28T11:31:16;10.80;;;9.90;;
2486;SDS011;1254;49.144;8.212;2023-02-28T11:33:46;11.27;;;10.27;;
2486;SDS011;1254;49.144;8.212;2023-02-28T11:36:18;11.93;;;10.73;;
2486;SDS011;1254;49.144;8.212;2023-02-28T11:38:47;12.30;;;11.10;;
2486;SDS011;1254;49.144;8.212;2023-02-28T11:41:22;10.85;;;9.95;;
2486;SDS011;1254;49.144;8.212;2023-02-28T11:44:00;11.50;;;10.50;;
2486;SDS011;1254;49.144;8.212;2023-02-28T11:46:30;11.75;;;10.55;;
2486;SDS011;1254;49.144;8.212;2023-02-28T11:49:02;13.35;;;12.13;;
2486;SDS011;1254;49.144;8.212;2023-02-28T11:51:35;11.30;;;10.25;;
2486;SDS011;1254;49.144;8.212;2023-02-28T11:54:21;11.90;;;10.70;;
2486;SDS011;1254;49.144;8.212;2023-02-28T11:56:52;12.05;;;10.60;;
2486;SDS011;1254;49.144;8.212;2023-02-28T12:02:16;10.95;;;10.05;;
2486;SDS011;1254;49.144;8.212;2023-02-28T12:04:48;11.38;;;10.38;;
2486;SDS011;1254;49.144;8.212;2023-02-28T12:07:25;13.57;;;10.30;;
2486;SDS011;1254;49.144;8.212;2023-02-28T12:09:57;11.48;;;10.30;;
2486;SDS011;1254;49.144;8.212;2023-02-28T12:12:31;12.57;;;11.35;;
2486;SDS011;1254;49.144;8.212;2023-02-28T12:17:52;12.40;;;11.35;;
2486;SDS011;1254;49.144;8.212;2023-02-28T12:20:25;12.30;;;11.30;;
2486;SDS011;1254;49.144;8.212;2023-02-28T12:23:04;13.10;;;11.65;;
2486;SDS011;1254;49.144;8.212;2023-02-28T12:25:39;15.93;;;11.93;;
2486;SDS011;1254;49.144;8.212;2023-02-28T12:28:11;14.05;;;12.75;;
2486;SDS011;1254;49.144;8.212;2023-02-28T12:30:41;12.50;;;11.10;;
2486;SDS011;1254;49.144;8.212;2023-02-28T12:33:12;11.48;;;10.48;;
2486;SDS011;1254;49.144;8.212;2023-02-28T12:35:44;11.93;;;10.70;;
2486;SDS011;1254;49.144;8.212;2023-02-28T12:38:17;11.88;;;10.93;;
2486;SDS011;1254;49.144;8.212;2023-02-28T12:40:48;11.65;;;10.75;;
2486;SDS011;1254;49.144;8.212;2023-02-28T12:43:18;12.07;;;11.05;;
2486;SDS011;1254;49.144;8.212;2023-02-28T12:45:49;12.57;;;11.38;;
2486;SDS011;1254;49.144;8.212;2023-02-28T12:48:20;12.98;;;11.70;;
2486;SDS011;1254;49.144;8.212;2023-02-28T12:50:50;12.45;;;11.25;;
2486;SDS011;1254;49.144;8.212;2023-02-28T12:53:21;12.93;;;11.80;;
2486;SDS011;1254;49.144;8.212;2023-02-28T12:55:54;12.63;;;11.35;;
2486;SDS011;1254;49.144;8.212;2023-02-28T12:58:26;12.48;;;11.50;;
2486;SDS011;1254;49.144;8.212;2023-02-28T13:03:51;12.68;;;11.48;;
2486;SDS011;1254;49.144;8.212;2023-02-28T13:06:28;13.00;;;11.77;;
2486;SDS011;1254;49.144;8.212;2023-02-28T13:09:06;12.93;;;11.70;;
2486;SDS011;1254;49.144;8.212;2023-02-28T13:11:40;12.77;;;11.60;;
2486;SDS011;1254;49.144;8.212;2023-02-28T13:14:19;12.57;;;11.43;;
2486;SDS011;1254;49.144;8.212;2023-02-28T13:16:54;12.35;;;11.30;;
2486;SDS011;1254;49.144;8.212;2023-02-28T13:19:23;12.73;;;11.52;;
2486;SDS011;1254;49.144;8.212;2023-02-28T13:21:53;12.30;;;11.20;;
2486;SDS011;1254;49.144;8.212;2023-02-28T13:24:42;11.15;;;10.20;;
2486;SDS011;1254;49.144;8.212;2023-02-28T13:27:19;12.00;;;10.85;;
2486;SDS011;1254;49.144;8.212;2023-02-28T13:29:50;13.82;;;12.45;;
2486;SDS011;1254;49.144;8.212;2023-02-28T13:35:15;12.85;;;11.73;;
2486;SDS011;1254;49.144;8.212;2023-02-28T13:38:15;12.95;;;11.85;;
2486;SDS011;1254;49.144;8.212;2023-02-28T13:40:45;14.05;;;12.73;;
2486;SDS011;1254;49.144;8.212;2023-02-28T13:43:13;12.55;;;11.38;;
2486;SDS011;1254;49.144;8.212;2023-02-28T13:48:28;13.80;;;12.60;;
2486;SDS011;1254;49.144;8.212;2023-02-28T13:50:57;12.43;;;11.30;;
2486;SDS011;1254;49.144;8.212;2023-02-28T13:53:32;12.57;;;11.48;;
2486;SDS011;1254;49.144;8.212;2023-02-28T13:56:04;12.75;;;11.45;;
2486;SDS011;1254;49.144;8.212;2023-02-28T13:58:39;14.52;;;13.32;;
2486;SDS011;1254;49.144;8.212;2023-02-28T14:01:14;13.15;;;12.05;;
2486;SDS011;1254;49.144;8.212;2023-02-28T14:03:58;12.88;;;11.65;;
2486;SDS011;1254;49.144;8.212;2023-02-28T14:06:31;12.15;;;10.98;;
2486;SDS011;1254;49.144;8.212;2023-02-28T14:09:01;14.13;;;12.98;;
2486;SDS011;1254;49.144;8.212;2023-02-28T14:11:33;14.18;;;12.88;;
2486;SDS011;1254;49.144;8.212;2023-02-28T14:14:03;13.35;;;12.07;;
2486;SDS011;1254;49.144;8.212;2023-02-28T14:16:35;13.68;;;12.48;;
2486;SDS011;1254;49.144;8.212;2023-02-28T14:19:09;14.63;;;12.25;;
2486;SDS011;1254;49.144;8.212;2023-02-28T14:21:38;14.32;;;12.82;;
2486;SDS011;1254;49.144;8.212;2023-02-28T14:24:23;12.85;;;11.55;;
2486;SDS011;1254;49.144;8.212;2023-02-28T14:27:03;14.15;;;12.90;;
2486;SDS011;1254;49.144;8.212;2023-02-28T14:29:37;12.38;;;11.25;;
2486;SDS011;1254;49.144;8.212;2023-02-28T14:32:10;13.23;;;12.18;;
2486;SDS011;1254;49.144;8.212;2023-02-28T14:34:41;13.15;;;11.95;;
2486;SDS011;1254;49.144;8.212;2023-02-28T14:37:15;13.45;;;12.07;;
2486;SDS011;1254;49.144;8.212;2023-02-28T14:39:44;15.13;;;13.93;;
2486;SDS011;1254;49.144;8.212;2023-02-28T14:42:27;12.90;;;11.73;;
2486;SDS011;1254;49.144;8.212;2023-02-28T14:44:56;13.70;;;12.50;;
2486;SDS011;1254;49.144;8.212;2023-02-28T14:47:25;14.57;;;13.20;;
2486;SDS011;1254;49.144;8.212;2023-02-28T14:49:55;15.57;;;13.80;;
2486;SDS011;1254;49.144;8.212;2023-02-28T14:52:24;13.27;;;12.00;;
2486;SDS011;1254;49.144;8.212;2023-02-28T14:54:53;12.63;;;11.57;;
2486;SDS011;1254;49.144;8.212;2023-02-28T14:57:23;14.02;;;12.73;;
2486;SDS011;1254;49.144;8.212;2023-02-28T15:00:00;14.13;;;12.63;;
2486;SDS011;1254;49.144;8.212;2023-02-28T15:02:30;13.98;;;12.73;;
2486;SDS011;1254;49.144;8.212;2023-02-28T15:04:59;14.48;;;12.95;;
2486;SDS011;1254;49.144;8.212;2023-02-28T15:07:28;13.75;;;12.48;;
2486;SDS011;1254;49.144;8.212;2023-02-28T15:12:51;15.23;;;13.73;;
2486;SDS011;1254;49.144;8.212;2023-02-28T15:15:21;13.70;;;12.35;;
2486;SDS011;1254;49.144;8.212;2023-02-28T15:17:50;14.15;;;12.80;;
2486;SDS011;1254;49.144;8.212;2023-02-28T15:20:19;13.23;;;12.10;;
2486;SDS011;1254;49.144;8.212;2023-02-28T15:22:49;13.00;;;11.70;;
2486;SDS011;1254;49.144;8.212;2023-02-28T15:25:20;14.30;;;13.00;;
2486;SDS011;1254;49.144;8.212;2023-02-28T15:27:50;13.30;;;11.93;;
2486;SDS011;1254;49.144;8.212;2023-02-28T15:30:19;13.07;;;12.18;;
2486;SDS011;1254;49.144;8.212;2023-02-28T15:33:03;14.32;;;13.02;;
2486;SDS011;1254;49.144;8.212;2023-02-28T15:35:32;15.68;;;14.02;;
2486;SDS011;1254;49.144;8.212;2023-02-28T15:38:02;13.98;;;12.65;;
2486;SDS011;1254;49.144;8.212;2023-02-28T15:40:32;13.90;;;12.68;;
2486;SDS011;1254;49.144;8.212;2023-02-28T15:43:03;13.45;;;12.35;;
2486;SDS011;1254;49.144;8.212;2023-02-28T15:45:33;14.07;;;12.85;;
2486;SDS011;1254;49.144;8.212;2023-02-28T15:48:05;14.52;;;13.30;;
2486;SDS011;1254;49.144;8.212;2023-02-28T15:50:40;15.07;;;13.35;;
2486;SDS011;1254;49.144;8.212;2023-02-28T15:53:12;13.73;;;12.07;;
2486;SDS011;1254;49.144;8.212;2023-02-28T15:55:41;14.32;;;12.93;;
2486;SDS011;1254;49.144;8.212;2023-02-28T15:58:10;14.68;;;13.27;;
2486;SDS011;1254;49.144;8.212;2023-02-28T16:00:39;14.77;;;13.32;;